createdAt,value
2019-03-19T00:00:00.359Z,25.80
2019-03-19T00:02:34.167Z,25.90
2019-03-19T00:05:07.344Z,25.90
2019-03-19T00:07:40.138Z,26.00
2019-03-19T00:10:12.633Z,26.10
2019-03-19T00:12:45.765Z,26.20
2019-03-19T00:15:18.327Z,26.30
2019-03-19T00:17:51.118Z,26.40
2019-03-19T00:20:23.436Z,26.40
2019-03-19T00:22:55.913Z,26.30
2019-03-19T00:25:30.506Z,26.40
2019-03-19T00:28:04.771Z,26.40
2019-03-19T00:30:37.654Z,26.60
2019-03-19T00:33:10.421Z,26.70
2019-03-19T00:35:43.015Z,26.70
2019-03-19T00:38:15.764Z,26.70
2019-03-19T00:40:48.425Z,26.80
2019-03-19T00:43:21.070Z,26.80
2019-03-19T00:45:53.474Z,27.00
2019-03-19T00:48:26.145Z,27.10
2019-03-19T00:50:59.739Z,27.20
2019-03-19T00:53:32.114Z,27.40
2019-03-19T00:56:04.619Z,27.60
2019-03-19T00:58:37.370Z,27.50
2019-03-19T01:01:09.884Z,27.60
2019-03-19T01:03:42.500Z,27.70
2019-03-19T01:06:14.929Z,27.70
2019-03-19T01:08:47.545Z,27.80
2019-03-19T01:11:20.185Z,27.80
2019-03-19T01:13:52.775Z,27.90
2019-03-19T01:16:25.127Z,28.00
2019-03-19T01:18:57.844Z,28.20
2019-03-19T01:21:30.594Z,28.40
2019-03-19T01:24:02.979Z,28.50
2019-03-19T01:26:35.662Z,28.50
2019-03-19T01:29:08.201Z,28.70
2019-03-19T01:31:40.960Z,28.60
2019-03-19T01:34:13.292Z,28.60
2019-03-19T01:36:45.702Z,28.90
2019-03-19T01:39:18.089Z,29.20
2019-03-19T01:41:50.468Z,29.30
2019-03-19T01:44:22.933Z,29.30
2019-03-19T01:46:55.548Z,29.20
2019-03-19T01:49:27.942Z,29.20
2019-03-19T01:52:00.546Z,29.30
2019-03-19T01:54:33.162Z,29.70
2019-03-19T01:57:05.987Z,29.80
2019-03-19T01:59:39.502Z,29.70
2019-03-19T02:02:12.305Z,29.80
2019-03-19T02:04:44.755Z,30.10
2019-03-19T02:07:17.511Z,30.20
2019-03-19T02:09:49.788Z,30.10
2019-03-19T02:12:22.436Z,30.40
2019-03-19T02:14:54.732Z,30.20
2019-03-19T02:17:27.121Z,30.40
2019-03-19T02:19:59.647Z,30.70
2019-03-19T02:22:32.430Z,31.10
2019-03-19T02:25:05.027Z,31.10
2019-03-19T02:27:37.762Z,31.30
2019-03-19T02:30:12.885Z,31.10
2019-03-19T02:32:45.673Z,31.50
2019-03-19T02:35:18.114Z,31.80
2019-03-19T02:37:50.631Z,31.90
2019-03-19T02:40:23.115Z,31.90
2019-03-19T02:42:55.881Z,32.10
2019-03-19T02:45:28.880Z,32.20
2019-03-19T02:48:01.620Z,32.60
2019-03-19T02:50:34.095Z,32.60
2019-03-19T02:53:06.608Z,32.20
2019-03-19T02:55:39.590Z,32.60
2019-03-19T02:58:12.211Z,33.10
2019-03-19T03:00:44.780Z,32.80
2019-03-19T03:03:17.480Z,33.10
2019-03-19T03:05:49.645Z,33.30
2019-03-19T03:08:22.234Z,33.30
2019-03-19T03:10:54.456Z,33.00
2019-03-19T03:13:27.180Z,33.30
2019-03-19T03:15:59.489Z,33.50
2019-03-19T03:18:32.079Z,33.80
2019-03-19T03:21:04.545Z,34.00
2019-03-19T03:23:37.037Z,34.00
2019-03-19T03:26:10.099Z,34.10
2019-03-19T03:28:42.405Z,34.00
2019-03-19T03:31:15.513Z,34.30
2019-03-19T03:33:47.668Z,34.60
2019-03-19T03:36:20.315Z,34.60
2019-03-19T03:38:53.139Z,34.60
2019-03-19T03:41:25.792Z,34.70
2019-03-19T03:43:58.192Z,34.90
2019-03-19T03:46:30.783Z,34.80
2019-03-19T03:49:03.343Z,34.90
2019-03-19T03:51:36.155Z,35.00
2019-03-19T03:54:08.604Z,35.20
2019-03-19T03:56:41.183Z,35.30
2019-03-19T03:59:13.568Z,35.50
2019-03-19T04:01:46.317Z,35.70
2019-03-19T04:04:18.926Z,35.80
2019-03-19T04:06:52.271Z,35.60
2019-03-19T04:09:24.749Z,35.50
2019-03-19T04:11:57.277Z,35.80
2019-03-19T04:14:31.892Z,35.50
2019-03-19T04:17:04.397Z,35.30
2019-03-19T04:19:36.845Z,35.10
2019-03-19T04:22:09.669Z,35.00
2019-03-19T04:24:41.956Z,35.30
2019-03-19T04:27:16.366Z,35.70
2019-03-19T04:29:48.396Z,35.40
2019-03-19T04:32:20.761Z,35.70
2019-03-19T04:34:53.395Z,36.30
2019-03-19T04:37:25.970Z,36.70
2019-03-19T04:39:58.485Z,36.70
2019-03-19T04:42:30.780Z,37.10
2019-03-19T04:45:03.131Z,37.10
2019-03-19T04:47:35.862Z,36.40
2019-03-19T04:50:10.416Z,36.80
2019-03-19T04:52:43.831Z,37.10
2019-03-19T04:55:17.714Z,37.10
2019-03-19T04:57:50.454Z,37.20
2019-03-19T05:00:23.046Z,37.30
2019-03-19T05:02:55.429Z,37.30
2019-03-19T05:05:28.256Z,37.50
2019-03-19T05:08:00.926Z,37.80
2019-03-19T05:10:33.362Z,37.80
2019-03-19T05:13:07.147Z,38.10
2019-03-19T05:15:39.420Z,37.90
2019-03-19T05:18:12.061Z,38.20
2019-03-19T05:20:44.520Z,38.30
2019-03-19T05:23:16.928Z,37.50
2019-03-19T05:25:49.639Z,37.90
2019-03-19T05:28:22.022Z,37.60
2019-03-19T05:30:54.579Z,38.10
2019-03-19T05:33:27.183Z,38.50
2019-03-19T05:35:59.737Z,38.80
2019-03-19T05:38:32.377Z,38.80
2019-03-19T05:41:04.789Z,38.90
2019-03-19T05:43:37.165Z,38.40
2019-03-19T05:46:09.485Z,38.30
2019-03-19T05:48:42.066Z,38.40
2019-03-19T05:51:14.871Z,38.80
2019-03-19T05:53:47.258Z,38.60
2019-03-19T05:56:19.888Z,38.30
2019-03-19T05:58:52.437Z,38.50
2019-03-19T06:01:24.774Z,38.40
2019-03-19T06:03:57.620Z,38.40
2019-03-19T06:06:30.217Z,38.80
2019-03-19T06:09:03.195Z,38.80
2019-03-19T06:11:35.739Z,38.70
2019-03-19T06:14:08.411Z,38.90
2019-03-19T06:16:40.756Z,39.00
2019-03-19T06:19:13.276Z,39.10
2019-03-19T06:21:45.854Z,39.10
2019-03-19T06:24:18.683Z,38.90
2019-03-19T06:26:52.670Z,39.00
2019-03-19T06:29:25.236Z,39.10
2019-03-19T06:31:57.606Z,39.00
2019-03-19T06:34:29.992Z,38.80
2019-03-19T06:37:02.506Z,38.50
2019-03-19T06:39:35.022Z,38.50
2019-03-19T06:42:07.354Z,39.00
2019-03-19T06:44:40.748Z,38.80
2019-03-19T06:47:13.150Z,38.40
2019-03-19T06:49:45.774Z,38.20
2019-03-19T06:52:18.201Z,39.20
2019-03-19T06:54:50.744Z,39.50
2019-03-19T06:57:23.111Z,38.80
2019-03-19T06:59:55.261Z,38.50
2019-03-19T07:02:27.965Z,38.40
2019-03-19T07:05:00.820Z,38.50
2019-03-19T07:07:33.565Z,38.80
2019-03-19T07:10:08.400Z,38.70
2019-03-19T07:12:42.093Z,38.00
2019-03-19T07:15:16.782Z,38.00
2019-03-19T07:17:48.975Z,38.10
2019-03-19T07:20:23.283Z,38.10
2019-03-19T07:22:55.638Z,37.80
2019-03-19T07:25:28.923Z,37.70
2019-03-19T07:28:01.574Z,37.60
2019-03-19T07:30:34.091Z,37.70
2019-03-19T07:33:06.766Z,38.10
2019-03-19T07:35:39.310Z,38.60
2019-03-19T07:38:11.649Z,38.10
2019-03-19T07:41:03.635Z,37.90
2019-03-19T07:43:36.401Z,37.60
2019-03-19T07:46:09.104Z,37.50
2019-03-19T07:48:42.203Z,37.20
2019-03-19T07:51:15.181Z,37.00
2019-03-19T07:53:47.540Z,36.90
2019-03-19T07:56:20.318Z,37.20
2019-03-19T07:58:52.520Z,37.30
2019-03-19T08:01:24.976Z,37.70
2019-03-19T08:03:57.768Z,38.10
2019-03-19T08:06:32.646Z,38.10
2019-03-19T08:09:05.629Z,38.40
2019-03-19T08:11:38.139Z,38.50
2019-03-19T08:14:10.443Z,38.40
2019-03-19T08:16:43.757Z,38.70
2019-03-19T08:19:16.040Z,38.60
2019-03-19T08:21:48.191Z,38.80
2019-03-19T08:24:20.586Z,38.80
2019-03-19T08:26:52.892Z,38.80
2019-03-19T08:29:25.304Z,38.40
2019-03-19T08:31:58.148Z,38.20
2019-03-19T08:34:30.771Z,38.30
2019-03-19T08:37:03.478Z,38.60
2019-03-19T08:39:36.630Z,38.40
2019-03-19T08:42:09.188Z,38.70
2019-03-19T08:44:42.133Z,38.90
2019-03-19T08:47:16.336Z,38.50
2019-03-19T08:49:48.806Z,38.70
2019-03-19T08:52:21.435Z,38.40
2019-03-19T08:54:53.826Z,38.70
2019-03-19T08:57:26.252Z,38.60
2019-03-19T08:59:58.588Z,38.40
2019-03-19T09:02:31.088Z,38.40
2019-03-19T09:05:03.388Z,38.40
2019-03-19T09:07:36.209Z,38.50
2019-03-19T09:10:10.737Z,38.50
2019-03-19T09:12:43.276Z,38.30
2019-03-19T09:15:17.978Z,38.20
2019-03-19T09:17:50.473Z,37.70
2019-03-19T09:20:22.777Z,37.80
2019-03-19T09:22:55.580Z,37.80
2019-03-19T09:25:27.984Z,38.00
2019-03-19T09:28:00.999Z,38.10
2019-03-19T09:30:33.525Z,38.00
2019-03-19T09:33:06.368Z,38.00
2019-03-19T09:35:38.699Z,37.80
2019-03-19T09:38:11.517Z,37.80
2019-03-19T09:40:43.627Z,37.70
2019-03-19T09:43:16.328Z,37.80
2019-03-19T09:45:48.910Z,37.70
2019-03-19T09:48:21.348Z,37.70
2019-03-19T09:50:53.741Z,37.60
2019-03-19T09:53:26.428Z,37.60
2019-03-19T09:55:58.898Z,37.40
2019-03-19T09:58:31.827Z,37.30
2019-03-19T10:01:05.115Z,37.20
2019-03-19T10:03:37.794Z,37.10
2019-03-19T10:06:14.323Z,36.90
2019-03-19T10:08:44.337Z,36.90
2019-03-19T10:11:17.386Z,36.80
2019-03-19T10:13:50.291Z,36.90
2019-03-19T10:16:22.584Z,36.80
2019-03-19T10:18:54.946Z,36.80
2019-03-19T10:21:27.259Z,36.80
2019-03-19T10:24:00.362Z,36.70
2019-03-19T10:26:32.885Z,36.60
2019-03-19T10:29:06.010Z,36.60
2019-03-19T10:31:38.521Z,36.50
2019-03-19T10:34:11.161Z,36.50
2019-03-19T10:36:43.534Z,36.50
2019-03-19T10:39:16.335Z,36.50
2019-03-19T10:41:48.864Z,36.40
2019-03-19T10:44:21.706Z,36.30
2019-03-19T10:46:55.085Z,36.20
2019-03-19T10:49:27.612Z,36.20
2019-03-19T10:52:00.078Z,36.10
2019-03-19T10:54:33.199Z,36.00
2019-03-19T10:57:05.469Z,35.90
2019-03-19T10:59:48.527Z,35.80
2019-03-19T11:02:11.713Z,35.80
2019-03-19T11:04:44.200Z,35.70
2019-03-19T11:07:16.561Z,35.60
2019-03-19T11:09:49.424Z,35.50
2019-03-19T11:12:21.965Z,35.50
2019-03-19T11:14:55.195Z,35.40
2019-03-19T11:17:28.486Z,35.30
2019-03-19T11:20:01.338Z,35.20
2019-03-19T11:22:34.067Z,35.10
2019-03-19T11:25:08.828Z,34.90
2019-03-19T11:27:41.074Z,34.90
2019-03-19T11:30:15.999Z,34.80
2019-03-19T11:32:48.269Z,34.80
2019-03-19T11:35:21.618Z,34.70
2019-03-19T11:37:54.299Z,34.60
2019-03-19T11:40:26.702Z,34.60
2019-03-19T11:42:59.254Z,34.50
2019-03-19T11:45:32.236Z,34.50
2019-03-19T11:48:04.594Z,34.40
2019-03-19T11:50:37.308Z,34.40
2019-03-19T11:53:09.706Z,34.30
2019-03-19T11:55:42.355Z,34.30
2019-03-19T11:58:14.699Z,34.20
2019-03-19T12:00:48.532Z,34.20
2019-03-19T12:03:20.901Z,34.10
2019-03-19T12:05:53.744Z,34.00
2019-03-19T12:08:26.395Z,34.00
2019-03-19T12:10:59.110Z,33.80
2019-03-19T12:13:32.816Z,33.80
2019-03-19T12:16:07.572Z,33.70
2019-03-19T12:18:39.974Z,33.70
2019-03-19T12:21:12.318Z,33.70
2019-03-19T12:23:44.680Z,33.70
2019-03-19T12:26:17.104Z,33.70
2019-03-19T12:28:49.308Z,33.60
2019-03-19T12:31:22.356Z,33.60
2019-03-19T12:33:54.742Z,33.50
2019-03-19T12:36:28.891Z,33.50
2019-03-19T12:39:01.295Z,33.50
2019-03-19T12:41:35.276Z,33.50
2019-03-19T12:44:07.665Z,33.50
2019-03-19T12:46:40.688Z,33.40
2019-03-19T12:49:13.022Z,33.40
2019-03-19T12:51:45.377Z,33.40
2019-03-19T12:54:17.731Z,33.30
2019-03-19T12:56:50.346Z,33.30
2019-03-19T12:59:23.045Z,33.30
2019-03-19T13:01:55.832Z,33.20
2019-03-19T13:04:28.539Z,33.20
2019-03-19T13:07:01.461Z,33.20
2019-03-19T13:09:33.763Z,33.20
2019-03-19T13:12:06.484Z,33.30
2019-03-19T13:14:39.009Z,33.40
2019-03-19T13:17:11.814Z,33.30
2019-03-19T13:19:44.446Z,33.20
2019-03-19T13:22:16.868Z,33.10
2019-03-19T13:24:49.166Z,33.00
2019-03-19T13:27:21.681Z,32.90
2019-03-19T13:29:54.018Z,32.90
2019-03-19T13:32:28.237Z,32.90
2019-03-19T13:35:00.367Z,32.80
2019-03-19T13:37:32.873Z,32.80
2019-03-19T13:40:06.737Z,32.70
2019-03-19T13:42:39.231Z,32.70
2019-03-19T13:45:13.786Z,32.60
2019-03-19T13:47:46.268Z,32.60
2019-03-19T13:50:20.626Z,32.60
2019-03-19T13:52:53.306Z,32.60
2019-03-19T13:55:26.132Z,32.60
2019-03-19T13:57:58.654Z,32.60
2019-03-19T14:00:31.370Z,32.50
2019-03-19T14:03:03.994Z,32.30
2019-03-19T14:05:36.392Z,32.00
2019-03-19T14:08:09.087Z,32.10
2019-03-19T14:10:41.401Z,32.10
2019-03-19T14:13:14.130Z,32.20
2019-03-19T14:15:46.643Z,32.30
2019-03-19T14:18:19.941Z,32.30
2019-03-19T14:20:52.416Z,32.10
2019-03-19T14:23:24.787Z,32.10
2019-03-19T14:25:57.382Z,31.90
2019-03-19T14:28:29.676Z,31.70
2019-03-19T14:31:08.391Z,31.90
2019-03-19T14:33:36.018Z,31.80
2019-03-19T14:36:10.281Z,31.70
2019-03-19T14:38:47.168Z,31.70
2019-03-19T14:41:16.278Z,31.50
2019-03-19T14:43:48.618Z,31.40
2019-03-19T14:46:21.103Z,31.40
2019-03-19T14:48:53.751Z,31.30
2019-03-19T14:51:26.453Z,31.30
2019-03-19T14:53:58.979Z,31.20
2019-03-19T14:56:31.581Z,31.00
2019-03-19T14:59:04.332Z,31.00
2019-03-19T15:01:37.461Z,30.80
2019-03-19T15:04:10.198Z,30.80
2019-03-19T15:06:42.846Z,30.80
2019-03-19T15:09:15.355Z,30.70
2019-03-19T15:11:47.474Z,30.70
2019-03-19T15:14:20.247Z,30.60
2019-03-19T15:16:52.346Z,30.60
2019-03-19T15:19:24.947Z,30.60
2019-03-19T15:21:58.553Z,30.70
2019-03-19T15:24:31.179Z,30.80
2019-03-19T15:27:03.584Z,30.90
2019-03-19T15:29:36.379Z,31.00
2019-03-19T15:32:08.934Z,31.00
2019-03-19T15:34:41.459Z,31.00
2019-03-19T15:37:14.321Z,30.80
2019-03-19T15:39:47.105Z,30.70
2019-03-19T15:42:19.640Z,30.60
2019-03-19T15:44:51.945Z,30.70
2019-03-19T15:47:25.032Z,30.70
2019-03-19T15:49:57.838Z,30.80
2019-03-19T15:52:30.451Z,30.70
2019-03-19T15:55:02.898Z,30.60
2019-03-19T15:57:35.652Z,30.60
2019-03-19T16:00:10.733Z,30.50
2019-03-19T16:02:44.104Z,30.50
2019-03-19T16:05:17.155Z,30.60
2019-03-19T16:07:49.562Z,30.50
2019-03-19T16:10:22.520Z,30.50
2019-03-19T16:12:55.210Z,30.20
2019-03-19T16:15:28.249Z,30.30
2019-03-19T16:18:01.066Z,30.30
2019-03-19T16:20:33.302Z,30.20
2019-03-19T16:23:05.827Z,30.10
2019-03-19T16:25:38.060Z,30.00
2019-03-19T16:28:10.717Z,29.90
2019-03-19T16:30:43.053Z,29.80
2019-03-19T16:33:15.765Z,29.80
2019-03-19T16:35:48.422Z,29.70
2019-03-19T16:38:21.647Z,29.60
2019-03-19T16:40:53.844Z,29.60
2019-03-19T16:43:26.683Z,29.60
2019-03-19T16:45:59.799Z,29.50
2019-03-19T16:48:32.449Z,29.30
2019-03-19T16:51:04.958Z,29.10
2019-03-19T16:53:37.517Z,29.10
2019-03-19T16:56:10.242Z,29.00
2019-03-19T16:58:42.951Z,29.00
2019-03-19T17:01:15.542Z,29.00
2019-03-19T17:03:47.884Z,29.10
2019-03-19T17:06:20.276Z,29.10
2019-03-19T17:08:52.931Z,29.00
2019-03-19T17:11:25.157Z,28.90
2019-03-19T17:13:57.515Z,28.80
2019-03-19T17:16:29.813Z,28.90
2019-03-19T17:19:04.096Z,29.00
2019-03-19T17:21:35.931Z,28.80
2019-03-19T17:24:08.611Z,28.80
2019-03-19T17:26:41.367Z,28.90
2019-03-19T17:29:14.076Z,28.80
2019-03-19T17:31:46.403Z,28.60
2019-03-19T17:34:19.017Z,28.60
2019-03-19T17:36:51.343Z,28.60
2019-03-19T17:39:23.674Z,28.60
2019-03-19T17:41:56.316Z,28.50
2019-03-19T17:44:28.661Z,28.50
2019-03-19T17:47:01.402Z,28.40
2019-03-19T17:49:34.531Z,28.40
2019-03-19T17:52:07.420Z,28.50
2019-03-19T17:54:39.807Z,28.50
2019-03-19T17:57:12.494Z,28.40
2019-03-19T17:59:44.918Z,28.40
2019-03-19T18:02:23.896Z,28.20
2019-03-19T18:04:52.692Z,28.20
2019-03-19T18:07:25.710Z,28.20
2019-03-19T18:09:58.824Z,28.10
2019-03-19T18:12:31.549Z,28.10
2019-03-19T18:15:03.883Z,28.10
2019-03-19T18:17:36.467Z,27.70
2019-03-19T18:20:11.032Z,27.60
2019-03-19T18:22:43.992Z,27.40
2019-03-19T18:25:18.662Z,27.40
2019-03-19T18:27:51.052Z,27.50
2019-03-19T18:30:25.962Z,27.80
2019-03-19T18:32:58.702Z,28.00
2019-03-19T18:35:31.023Z,28.10
2019-03-19T18:38:03.784Z,27.90
2019-03-19T18:40:36.192Z,27.60
2019-03-19T18:43:09.349Z,27.50
2019-03-19T18:45:42.164Z,27.50
2019-03-19T18:48:15.977Z,27.80
2019-03-19T18:50:48.585Z,27.80
2019-03-19T18:53:21.629Z,27.90
2019-03-19T18:55:54.204Z,28.00
2019-03-19T18:58:26.604Z,27.90
2019-03-19T19:00:58.848Z,28.00
2019-03-19T19:03:31.337Z,28.00
2019-03-19T19:06:03.873Z,27.90
2019-03-19T19:08:36.482Z,27.50
2019-03-19T19:11:09.372Z,27.50
2019-03-19T19:13:42.049Z,27.50
2019-03-19T19:16:14.302Z,27.60
2019-03-19T19:18:46.969Z,27.60
2019-03-19T19:21:19.303Z,27.50
2019-03-19T19:23:52.028Z,27.60
2019-03-19T19:26:24.353Z,27.60
2019-03-19T19:28:56.877Z,27.50
2019-03-19T19:31:29.376Z,27.50
2019-03-19T19:34:01.948Z,27.50
2019-03-19T19:36:34.771Z,27.40
2019-03-19T19:39:08.767Z,27.40
2019-03-19T19:41:41.210Z,27.40
2019-03-19T19:44:13.760Z,27.40
2019-03-19T19:46:46.194Z,27.50
2019-03-19T19:49:19.548Z,27.60
2019-03-19T19:51:52.003Z,27.40
2019-03-19T19:54:24.648Z,27.40
2019-03-19T19:56:57.353Z,27.50
2019-03-19T19:59:30.198Z,27.60
2019-03-19T20:02:02.786Z,27.50
2019-03-19T20:04:35.378Z,27.50
2019-03-19T20:07:07.796Z,27.40
2019-03-19T20:09:40.422Z,27.40
2019-03-19T20:12:12.702Z,27.40
2019-03-19T20:14:45.325Z,27.30
2019-03-19T20:17:17.750Z,27.20
2019-03-19T20:19:49.990Z,27.20
2019-03-19T20:22:22.320Z,27.20
2019-03-19T20:24:54.741Z,27.20
2019-03-19T20:27:27.260Z,27.20
2019-03-19T20:29:59.778Z,27.10
2019-03-19T20:32:32.602Z,27.00
2019-03-19T20:35:06.035Z,27.00
2019-03-19T20:37:38.874Z,27.00
2019-03-19T20:40:13.616Z,26.80
2019-03-19T20:42:46.240Z,26.60
2019-03-19T20:45:21.677Z,26.80
2019-03-19T20:47:54.263Z,27.00
2019-03-19T20:50:29.493Z,27.10
2019-03-19T20:53:02.134Z,27.20
2019-03-19T20:55:34.851Z,27.00
2019-03-19T20:58:07.954Z,26.70
2019-03-19T21:00:40.489Z,26.80
2019-03-19T21:03:13.024Z,27.00
2019-03-19T21:05:46.287Z,26.90
2019-03-19T21:08:18.644Z,26.90
2019-03-19T21:10:50.940Z,26.90
2019-03-19T21:13:23.376Z,27.00
2019-03-19T21:15:56.292Z,26.50
2019-03-19T21:18:28.781Z,26.60
2019-03-19T21:21:01.529Z,26.80
2019-03-19T21:23:33.942Z,26.70
2019-03-19T21:26:06.590Z,26.70
2019-03-19T21:28:38.995Z,26.80
2019-03-19T21:31:11.895Z,26.70
2019-03-19T21:33:51.273Z,26.70
2019-03-19T21:36:18.607Z,26.70
2019-03-19T21:38:50.765Z,26.70
2019-03-19T21:41:23.543Z,26.30
2019-03-19T21:43:55.826Z,26.20
2019-03-19T21:46:28.304Z,26.20
2019-03-19T21:49:00.903Z,26.40
2019-03-19T21:51:34.427Z,26.60
2019-03-19T21:54:06.983Z,26.50
2019-03-19T21:56:39.478Z,26.50
2019-03-19T21:59:12.038Z,26.50
2019-03-19T22:01:45.265Z,26.40
2019-03-19T22:04:18.289Z,26.40
2019-03-19T22:06:50.676Z,26.40
2019-03-19T22:09:23.334Z,26.10
2019-03-19T22:11:55.986Z,26.30
2019-03-19T22:14:28.823Z,26.30
2019-03-19T22:17:01.200Z,26.30
2019-03-19T22:19:33.561Z,26.30
2019-03-19T22:22:05.981Z,26.40
2019-03-19T22:24:38.857Z,26.40
2019-03-19T22:27:11.266Z,26.20
2019-03-19T22:29:43.875Z,26.00
2019-03-19T22:32:16.550Z,26.00
2019-03-19T22:34:49.696Z,26.10
2019-03-19T22:37:22.264Z,26.10
2019-03-19T22:39:54.955Z,26.10
2019-03-19T22:42:27.683Z,26.00
2019-03-19T22:45:00.041Z,25.90
2019-03-19T22:47:33.204Z,26.00
2019-03-19T22:50:06.968Z,25.70
2019-03-19T22:52:39.395Z,25.60
2019-03-19T22:55:13.592Z,25.80
2019-03-19T22:57:46.560Z,26.00
2019-03-19T23:00:23.244Z,25.90
2019-03-19T23:02:57.373Z,26.10
2019-03-19T23:05:29.992Z,26.10
2019-03-19T23:08:02.777Z,26.10
2019-03-19T23:10:35.741Z,26.10
2019-03-19T23:13:08.683Z,26.20
2019-03-19T23:15:41.808Z,26.20
2019-03-19T23:18:14.665Z,26.20
2019-03-19T23:20:47.304Z,26.10
2019-03-19T23:23:19.964Z,26.10
2019-03-19T23:25:52.371Z,26.00
2019-03-19T23:28:25.236Z,25.90
2019-03-19T23:30:57.548Z,26.00
2019-03-19T23:33:29.951Z,26.10
2019-03-19T23:36:02.612Z,26.10
2019-03-19T23:38:35.102Z,26.10
2019-03-19T23:41:07.937Z,26.10
2019-03-19T23:43:40.258Z,26.10
2019-03-19T23:46:12.777Z,26.20
2019-03-19T23:48:45.163Z,26.30
2019-03-19T23:51:17.809Z,26.30
2019-03-19T23:53:50.234Z,26.40
2019-03-19T23:56:22.602Z,26.40
2019-03-19T23:58:55.228Z,26.50
